Time;durP1;ratioP1;P1;durP2;ratioP2;P2;SDS_P1;SDS_P2;PMS_P1;PMS_P2;Temp;Humidity;BMP_temperature;BMP_pressure;BME280_temperature;BME280_humidity;BME280_pressure;Samples;Min_cycle;Max_cycle;Signal;HPM_P1;HPM_P2
2022/05/03 00:00:48;;;;;;;9.20;5.70;;;5.60;99.90;;;;;;5067133;28;20032;-70
2022/05/03 00:03:28;;;;;;;8.07;5.30;;;5.40;99.90;;;;;;5068090;28;20078;-70
2022/05/03 00:06:05;;;;;;;9.20;5.60;;;5.40;99.90;;;;;;5050597;28;20400;-70
2022/05/03 00:08:44;;;;;;;13.77;6.47;;;5.40;99.90;;;;;;5068387;28;20044;-70
2022/05/03 00:11:39;;;;;;;9.38;5.78;;;5.30;99.90;;;;;;5068425;28;20043;-70
2022/05/03 00:14:08;;;;;;;10.48;6.25;;;5.30;99.90;;;;;;5048471;28;20043;-70
2022/05/03 00:16:35;;;;;;;8.48;5.25;;;5.20;99.90;;;;;;5066419;28;20071;-70
2022/05/03 00:19:05;;;;;;;7.72;5.85;;;5.20;99.90;;;;;;5067216;28;20045;-70
2022/05/03 00:21:38;;;;;;;12.15;6.20;;;5.20;99.90;;;;;;5063835;28;20564;-70
2022/05/03 00:24:05;;;;;;;8.27;5.93;;;5.10;99.90;;;;;;5051308;28;20040;-70
2022/05/03 00:26:32;;;;;;;11.15;6.28;;;5.10;99.90;;;;;;5084182;28;20036;-70
2022/05/03 00:28:59;;;;;;;10.07;6.38;;;5.10;99.90;;;;;;5085819;28;20043;-70
2022/05/03 00:31:27;;;;;;;9.35;6.28;;;5.10;99.90;;;;;;5066626;28;20036;-70
2022/05/03 00:33:57;;;;;;;10.35;6.60;;;5.10;99.90;;;;;;5065709;28;20048;-70
2022/05/03 00:36:24;;;;;;;8.40;6.05;;;5.10;99.90;;;;;;5051495;28;20586;-70
2022/05/03 00:38:51;;;;;;;10.70;6.50;;;5.00;99.90;;;;;;5066515;28;20508;-69
2022/05/03 00:41:38;;;;;;;8.18;6.05;;;5.10;99.90;;;;;;5051143;28;20389;-69
2022/05/03 00:45:09;;;;;;;9.60;6.03;;;5.10;99.90;;;;;;5083123;28;20036;-69
2022/05/03 00:47:33;;;;;;;9.77;6.40;;;5.10;99.90;;;;;;5062348;28;20032;-69
2022/05/03 00:50:23;;;;;;;9.40;6.40;;;5.00;99.90;;;;;;5064535;28;20085;-70
2022/05/03 00:52:58;;;;;;;10.38;6.72;;;5.00;99.90;;;;;;5074165;28;20070;-70
2022/05/03 00:55:55;;;;;;;9.75;6.55;;;4.90;99.90;;;;;;5087875;28;20054;-70
2022/05/03 00:58:39;;;;;;;9.32;6.20;;;4.90;99.90;;;;;;5087620;28;20130;-69
2022/05/03 01:01:14;;;;;;;11.75;7.32;;;4.90;99.90;;;;;;5069189;28;20093;-70
2022/05/03 01:04:08;;;;;;;10.60;6.75;;;4.90;99.90;;;;;;5086532;28;20114;-69
2022/05/03 01:06:54;;;;;;;8.40;6.18;;;4.80;99.90;;;;;;5086750;28;20393;-70
2022/05/03 01:09:36;;;;;;;10.73;7.20;;;4.70;99.90;;;;;;5085337;28;20395;-70
2022/05/03 01:12:23;;;;;;;10.65;6.70;;;4.70;99.90;;;;;;5086036;28;20398;-70
2022/05/03 01:15:09;;;;;;;10.65;6.88;;;4.70;99.90;;;;;;5105563;28;20105;-70
2022/05/03 01:17:45;;;;;;;12.07;7.20;;;4.70;99.90;;;;;;5087198;28;20044;-69
2022/05/03 01:20:17;;;;;;;10.45;6.10;;;4.70;99.90;;;;;;5086119;28;20110;-69
2022/05/03 01:23:04;;;;;;;12.95;6.97;;;4.80;99.90;;;;;;5087114;28;20567;-69
2022/05/03 01:25:36;;;;;;;9.48;6.63;;;4.70;99.90;;;;;;5075404;28;20659;-70
2022/05/03 01:28:05;;;;;;;10.45;6.65;;;4.70;99.90;;;;;;5085350;28;20032;-70
2022/05/03 01:30:38;;;;;;;8.30;6.10;;;4.70;99.90;;;;;;5086060;28;20043;-70
2022/05/03 01:33:07;;;;;;;;;;;4.60;99.90;;;;;;5089393;28;20044;-70
2022/05/03 01:35:39;;;;;;;10.68;6.90;;;4.60;99.90;;;;;;5079858;28;19920;-70
2022/05/03 01:38:14;;;;;;;10.30;7.05;;;4.60;99.90;;;;;;5082546;28;20039;-70
2022/05/03 01:41:07;;;;;;;9.65;6.25;;;4.60;99.90;;;;;;5085284;28;20042;-70
2022/05/03 01:43:55;;;;;;;12.02;6.75;;;4.50;99.90;;;;;;5084383;28;20143;-70
2022/05/03 01:46:27;;;;;;;9.77;6.80;;;4.50;99.90;;;;;;5065474;28;20550;-70
2022/05/03 01:53:05;;;;;;;11.77;6.15;;;4.50;99.90;;;;;;5028502;28;20400;-70
2022/05/03 01:55:57;;;;;;;9.30;6.18;;;4.40;99.90;;;;;;5079497;28;20075;-70
2022/05/03 01:58:35;;;;;;;8.67;6.17;;;4.40;99.90;;;;;;5074396;28;20051;-69
2022/05/03 02:01:19;;;;;;;8.80;5.65;;;4.40;99.90;;;;;;5085081;28;20654;-69
2022/05/03 02:03:49;;;;;;;11.85;6.50;;;4.40;99.90;;;;;;5085522;28;20139;-69
2022/05/03 02:06:20;;;;;;;12.15;6.78;;;4.40;99.90;;;;;;5069892;28;20446;-69
2022/05/03 02:09:04;;;;;;;10.75;6.65;;;4.30;99.90;;;;;;5072000;28;20421;-69
2022/05/03 02:11:44;;;;;;;10.27;6.43;;;4.20;99.90;;;;;;5065300;28;20138;-69
2022/05/03 02:17:46;;;;;;;9.00;6.13;;;4.20;99.90;;;;;;5085826;28;20044;-69
2022/05/03 02:20:54;;;;;;;13.10;7.47;;;4.20;99.90;;;;;;5086960;28;20043;-69
2022/05/03 02:23:46;;;;;;;10.13;6.47;;;4.20;99.90;;;;;;5069467;28;20096;-69
2022/05/03 02:26:22;;;;;;;11.03;6.63;;;4.20;99.90;;;;;;5085832;28;20156;-69
2022/05/03 02:29:14;;;;;;;11.30;7.60;;;4.20;99.90;;;;;;5068991;28;20043;-69
2022/05/03 02:31:43;;;;;;;11.00;6.53;;;4.20;99.90;;;;;;5074536;28;20082;-70
2022/05/03 02:34:45;;;;;;;9.50;6.30;;;4.20;99.90;;;;;;5084452;28;20519;-69
2022/05/03 02:37:14;;;;;;;10.32;6.88;;;4.10;99.90;;;;;;5100300;28;20059;-69
2022/05/03 02:39:53;;;;;;;11.10;7.60;;;4.10;99.90;;;;;;5086913;28;20032;-69
2022/05/03 02:42:20;;;;;;;12.40;7.60;;;4.10;99.90;;;;;;5085592;28;20035;-70
2022/05/03 02:44:47;;;;;;;11.35;6.95;;;4.10;99.90;;;;;;5069189;28;20065;-70
2022/05/03 02:47:29;;;;;;;12.90;7.15;;;4.10;99.90;;;;;;5064427;28;20063;-69
2022/05/03 02:50:07;;;;;;;11.35;7.05;;;4.10;99.90;;;;;;5083705;28;20051;-70
2022/05/03 02:52:54;;;;;;;10.93;7.38;;;4.10;99.90;;;;;;5067069;28;20078;-69
2022/05/03 02:55:24;;;;;;;12.65;8.07;;;4.00;99.90;;;;;;5083390;28;20043;-69
2022/05/03 02:57:56;;;;;;;12.80;7.15;;;4.10;99.90;;;;;;5085942;28;20134;-69
2022/05/03 03:03:25;;;;;;;11.65;7.93;;;3.90;99.90;;;;;;5084272;28;20063;-69
2022/05/03 03:06:20;;;;;;;12.13;7.53;;;3.90;99.90;;;;;;5082105;28;20039;-70
2022/05/03 03:08:46;;;;;;;12.05;7.47;;;3.90;99.90;;;;;;5069967;28;20073;-69
2022/05/03 03:11:48;;;;;;;13.13;7.57;;;3.90;99.90;;;;;;5087214;28;20035;-69
2022/05/03 03:14:14;;;;;;;11.55;7.57;;;3.90;99.90;;;;;;5069048;27;20044;-69
2022/05/03 03:16:53;;;;;;;16.05;8.52;;;3.90;99.90;;;;;;5073476;28;20040;-70
2022/05/03 03:19:37;;;;;;;13.75;8.70;;;3.90;99.90;;;;;;5071786;28;21683;-69
2022/05/03 03:22:11;;;;;;;14.55;8.85;;;3.90;99.90;;;;;;5073107;28;20035;-69
2022/05/03 03:24:39;;;;;;;15.30;9.18;;;3.90;99.90;;;;;;5086853;28;20031;-69
2022/05/03 03:27:08;;;;;;;17.92;9.23;;;3.90;99.90;;;;;;5089065;28;20038;-69
2022/05/03 03:29:38;;;;;;;15.73;8.57;;;3.90;99.90;;;;;;5089770;28;20054;-69
2022/05/03 03:32:06;;;;;;;13.75;8.05;;;3.80;99.90;;;;;;5071450;28;20048;-70
2022/05/03 03:34:33;;;;;;;11.02;7.93;;;3.80;99.90;;;;;;5089487;27;20560;-70
2022/05/03 03:37:04;;;;;;;12.80;8.02;;;3.60;99.90;;;;;;5086031;28;20055;-70
2022/05/03 03:39:32;;;;;;;14.52;8.55;;;3.60;99.90;;;;;;5089572;27;20400;-70
2022/05/03 03:42:01;;;;;;;11.18;7.80;;;3.60;99.90;;;;;;5087268;27;20125;-70
2022/05/03 03:44:27;;;;;;;12.68;8.32;;;3.60;99.90;;;;;;5089631;28;20489;-70
2022/05/03 03:46:53;;;;;;;12.60;8.57;;;3.60;99.90;;;;;;5087789;28;20034;-70
2022/05/03 03:49:19;;;;;;;16.02;9.82;;;3.60;99.90;;;;;;5088701;28;20385;-70
2022/05/03 03:51:45;;;;;;;19.33;11.00;;;3.80;99.90;;;;;;5093671;28;20043;-70
2022/05/03 03:54:12;;;;;;;15.00;9.27;;;3.70;99.90;;;;;;5088190;28;20126;-70
2022/05/03 03:56:38;;;;;;;19.58;10.52;;;3.70;99.90;;;;;;5073394;28;20040;-70
2022/05/03 03:59:05;;;;;;;15.23;10.13;;;3.80;99.90;;;;;;5072327;28;20052;-70
2022/05/03 04:01:31;;;;;;;17.08;9.30;;;3.80;99.90;;;;;;5088358;28;20051;-70
2022/05/03 04:03:58;;;;;;;15.68;8.65;;;3.80;99.90;;;;;;5090192;27;20032;-70
2022/05/03 04:06:26;;;;;;;13.70;9.20;;;3.80;99.90;;;;;;5106330;28;20056;-70
2022/05/03 04:08:53;;;;;;;15.15;9.73;;;3.80;99.90;;;;;;5071246;27;20042;-70
2022/05/03 04:11:18;;;;;;;17.42;9.23;;;3.80;99.90;;;;;;5089902;28;20057;-70
2022/05/03 04:13:45;;;;;;;13.25;8.25;;;3.80;99.90;;;;;;5088544;28;20665;-70
2022/05/03 04:16:11;;;;;;;16.58;9.23;;;3.80;99.90;;;;;;5069966;28;20409;-70
2022/05/03 04:18:46;;;;;;;15.18;9.65;;;3.80;99.90;;;;;;5072438;28;20040;-70
2022/05/03 04:21:17;;;;;;;15.18;9.45;;;3.90;99.90;;;;;;5087602;27;20114;-69
2022/05/03 04:23:48;;;;;;;14.65;9.00;;;3.90;99.90;;;;;;5088609;28;20038;-70
2022/05/03 04:26:14;;;;;;;17.05;8.57;;;3.90;99.90;;;;;;5087428;28;20038;-70
2022/05/03 04:28:40;;;;;;;12.38;9.27;;;4.00;99.90;;;;;;5069961;28;20108;-70
2022/05/03 04:31:07;;;;;;;15.38;9.80;;;4.00;99.90;;;;;;5065725;28;20723;-70
2022/05/03 04:33:33;;;;;;;14.02;9.98;;;4.10;99.90;;;;;;5088070;28;20443;-70
2022/05/03 04:35:59;;;;;;;16.42;9.65;;;4.10;99.90;;;;;;5107165;27;20027;-70
2022/05/03 04:38:27;;;;;;;16.60;9.95;;;4.20;99.90;;;;;;5087964;28;20590;-70
2022/05/03 04:41:00;;;;;;;17.30;10.25;;;4.20;99.90;;;;;;5086289;28;20032;-70
2022/05/03 04:43:27;;;;;;;14.63;9.88;;;4.20;99.90;;;;;;5087610;28;20032;-70
2022/05/03 04:45:53;;;;;;;15.07;10.25;;;4.30;99.90;;;;;;5069571;28;20400;-70
2022/05/03 04:48:18;;;;;;;17.33;10.18;;;4.40;99.90;;;;;;5087361;28;20104;-70
2022/05/03 04:50:45;;;;;;;14.98;10.88;;;4.40;99.90;;;;;;5088093;28;20031;-70
2022/05/03 04:53:13;;;;;;;14.55;10.60;;;4.50;99.90;;;;;;5086165;28;20134;-70
2022/05/03 04:55:40;;;;;;;21.92;11.75;;;4.60;99.90;;;;;;5085651;28;20055;-70
2022/05/03 04:58:06;;;;;;;16.58;11.30;;;4.60;99.90;;;;;;5070871;28;20232;-70
2022/05/03 05:00:32;;;;;;;15.50;10.93;;;4.80;99.90;;;;;;5086856;28;20564;-70
2022/05/03 05:02:58;;;;;;;15.95;10.73;;;4.80;99.90;;;;;;5087000;28;20408;-70
2022/05/03 05:05:24;;;;;;;16.35;11.57;;;4.90;99.90;;;;;;5087630;28;20036;-70
2022/05/03 05:07:52;;;;;;;15.98;10.63;;;5.00;99.90;;;;;;5056410;28;20028;-69
2022/05/03 05:10:24;;;;;;;18.35;11.65;;;5.00;99.90;;;;;;5085970;28;20122;-70
2022/05/03 05:13:00;;;;;;;19.52;11.90;;;5.10;99.90;;;;;;5085778;28;20090;-70
2022/05/03 05:15:29;;;;;;;18.83;11.70;;;5.30;99.90;;;;;;5084612;28;20038;-70
2022/05/03 05:17:58;;;;;;;17.73;11.90;;;5.40;99.90;;;;;;5088628;28;20447;-70
2022/05/03 05:20:25;;;;;;;18.95;13.05;;;5.50;99.90;;;;;;5086460;28;20067;-70
2022/05/03 05:22:51;;;;;;;22.75;12.95;;;5.60;99.90;;;;;;5079692;28;20059;-70
2022/05/03 05:25:18;;;;;;;21.70;13.43;;;5.70;99.90;;;;;;5087113;28;20042;-69
2022/05/03 05:27:44;;;;;;;22.98;15.77;;;5.80;99.90;;;;;;5084986;28;20047;-70
2022/05/03 05:30:11;;;;;;;22.00;14.68;;;5.90;99.90;;;;;;5086520;28;20041;-70
2022/05/03 05:32:39;;;;;;;25.15;14.85;;;5.90;99.90;;;;;;5070803;28;20043;-69
2022/05/03 05:35:05;;;;;;;27.70;15.95;;;6.00;99.90;;;;;;5086650;28;20035;-70
2022/05/03 05:37:32;;;;;;;27.10;16.90;;;6.10;99.90;;;;;;5086397;28;20035;-70
2022/05/03 05:39:58;;;;;;;29.20;16.83;;;6.20;99.90;;;;;;5085921;28;20577;-69
2022/05/03 05:42:27;;;;;;;23.40;15.45;;;6.30;99.90;;;;;;5086419;28;20039;-69
2022/05/03 05:44:53;;;;;;;29.85;16.88;;;6.40;99.90;;;;;;5084004;28;20039;-70
2022/05/03 05:47:18;;;;;;;25.85;17.38;;;6.50;99.90;;;;;;5086051;28;20396;-69
2022/05/03 05:49:44;;;;;;;27.30;17.42;;;6.50;99.90;;;;;;5085809;28;20492;-69
2022/05/03 05:54:54;;;;;;;31.98;20.50;;;6.80;99.90;;;;;;5041114;28;20481;-69
2022/05/03 05:57:20;;;;;;;31.02;21.65;;;6.90;99.90;;;;;;5067160;28;20059;-69
2022/05/03 05:59:46;;;;;;;34.25;21.58;;;7.00;99.90;;;;;;5077257;28;20149;-70
2022/05/03 06:02:14;;;;;;;35.10;21.80;;;7.50;99.90;;;;;;5059837;28;20043;-69
2022/05/03 06:04:42;;;;;;;35.95;21.13;;;7.30;99.90;;;;;;5062964;28;20032;-69
2022/05/03 06:07:08;;;;;;;33.50;21.90;;;7.40;99.90;;;;;;5063910;28;20085;-69
2022/05/03 06:09:35;;;;;;;44.55;25.83;;;7.60;99.90;;;;;;5057427;28;20039;-70
2022/05/03 06:12:01;;;;;;;45.80;28.38;;;7.70;99.90;;;;;;5080776;28;20444;-69
2022/05/03 06:14:30;;;;;;;44.15;27.50;;;7.90;99.90;;;;;;5065358;28;20127;-69
2022/05/03 06:16:57;;;;;;;51.72;30.55;;;8.10;99.90;;;;;;5064179;28;20055;-70
2022/05/03 06:19:24;;;;;;;46.42;29.13;;;8.40;99.90;;;;;;5060342;28;20350;-69
2022/05/03 06:21:50;;;;;;;43.92;27.15;;;8.60;99.90;;;;;;5063043;28;20047;-70
2022/05/03 06:24:16;;;;;;;43.58;27.80;;;8.80;99.90;;;;;;5026432;28;20032;-70
2022/05/03 06:26:44;;;;;;;48.40;28.80;;;8.90;99.90;;;;;;5044090;28;20041;-70
2022/05/03 06:29:11;;;;;;;51.05;28.58;;;9.10;99.90;;;;;;5063008;28;20556;-70
2022/05/03 06:31:42;;;;;;;43.50;25.80;;;9.20;99.90;;;;;;5060971;28;20086;-70
2022/05/03 06:34:08;;;;;;;47.42;26.25;;;9.30;99.90;;;;;;5047990;28;20382;-70
2022/05/03 06:36:37;;;;;;;44.63;27.98;;;9.40;99.90;;;;;;5029495;28;20039;-70
2022/05/03 06:39:06;;;;;;;41.45;26.30;;;9.50;99.90;;;;;;5048102;28;20077;-70
2022/05/03 06:41:33;;;;;;;41.38;27.50;;;9.60;99.90;;;;;;5062912;28;20047;-70
2022/05/03 06:43:58;;;;;;;45.05;28.75;;;9.60;99.90;;;;;;5063882;28;20036;-70
2022/05/03 06:46:25;;;;;;;47.15;27.17;;;9.80;99.90;;;;;;5066614;28;20076;-70
2022/05/03 06:48:51;;;;;;;46.42;27.98;;;9.80;99.90;;;;;;5066751;28;20036;-70
2022/05/03 06:51:17;;;;;;;43.72;27.48;;;9.90;99.90;;;;;;5053815;28;20446;-70
2022/05/03 06:53:43;;;;;;;40.78;26.60;;;10.00;99.90;;;;;;5073601;28;20054;-70
2022/05/03 06:56:09;;;;;;;40.67;26.23;;;10.00;99.90;;;;;;5092580;28;20035;-70
2022/05/03 06:58:34;;;;;;;43.38;26.10;;;10.10;99.90;;;;;;5091787;28;20066;-71
2022/05/03 07:01:13;;;;;;;44.55;27.02;;;10.20;99.90;;;;;;5074459;28;20043;-70
2022/05/03 07:03:40;;;;;;;40.97;24.38;;;10.20;99.90;;;;;;5092309;28;20084;-70
2022/05/03 07:06:07;;;;;;;40.75;26.85;;;10.30;99.90;;;;;;5088357;28;20118;-70
2022/05/03 07:08:33;;;;;;;37.30;24.60;;;10.30;99.90;;;;;;5094885;28;20035;-70
2022/05/03 07:11:05;;;;;;;42.45;25.95;;;10.50;99.90;;;;;;5091972;27;20051;-70
2022/05/03 07:13:31;;;;;;;43.05;25.50;;;10.60;99.90;;;;;;5091462;28;20388;-70
2022/05/03 07:15:58;;;;;;;40.20;25.17;;;10.70;99.90;;;;;;5068188;28;20040;-70
2022/05/03 07:24:04;;;;;;;41.83;25.00;;;11.30;99.90;;;;;;5076642;28;20044;-70
2022/05/03 07:26:30;;;;;;;42.95;24.42;;;11.50;99.90;;;;;;5069436;28;20040;-70
2022/05/03 07:28:56;;;;;;;40.90;25.77;;;11.50;99.90;;;;;;5070084;28;20055;-70
2022/05/03 07:31:22;;;;;;;36.38;23.67;;;11.50;99.90;;;;;;5054520;28;20036;-70
2022/05/03 07:33:49;;;;;;;38.90;24.67;;;11.50;99.90;;;;;;5062612;28;20036;-71
2022/05/03 07:36:17;;;;;;;40.05;23.90;;;11.40;99.90;;;;;;5069904;28;20646;-70
2022/05/03 07:38:43;;;;;;;40.40;25.42;;;11.50;99.90;;;;;;5086598;28;20146;-70
2022/05/03 07:41:10;;;;;;;40.67;25.15;;;11.60;99.90;;;;;;5077550;28;20081;-70
2022/05/03 07:43:36;;;;;;;38.30;22.38;;;11.60;99.90;;;;;;5067848;28;20408;-70
2022/05/03 07:46:03;;;;;;;43.20;24.23;;;11.60;99.90;;;;;;5052182;28;20756;-71
2022/05/03 07:48:29;;;;;;;39.50;23.77;;;11.60;99.90;;;;;;5063864;28;20047;-70
2022/05/03 07:50:54;;;;;;;39.67;23.17;;;11.60;99.90;;;;;;5068675;28;20048;-70
2022/05/03 07:53:20;;;;;;;51.42;26.05;;;11.60;99.90;;;;;;5048111;28;20052;-68
2022/05/03 07:55:47;;;;;;;50.35;27.52;;;11.60;99.90;;;;;;5044411;28;20047;-70
2022/05/03 07:58:14;;;;;;;55.90;27.42;;;11.50;99.90;;;;;;5060909;28;20489;-70
2022/05/03 08:00:40;;;;;;;53.55;27.33;;;11.50;99.90;;;;;;5042384;28;20046;-70
2022/05/03 08:03:06;;;;;;;53.15;28.63;;;11.50;99.90;;;;;;5048996;28;20032;-70
2022/05/03 08:05:32;;;;;;;52.08;27.02;;;11.50;99.90;;;;;;5048489;28;20044;-70
2022/05/03 08:07:58;;;;;;;54.58;27.85;;;11.40;99.90;;;;;;5063296;28;20036;-70
2022/05/03 08:10:24;;;;;;;51.63;27.45;;;11.30;99.90;;;;;;5066190;28;20031;-70
2022/05/03 08:12:52;;;;;;;47.17;26.52;;;11.20;99.90;;;;;;5032818;28;20367;-70
2022/05/03 08:15:22;;;;;;;54.25;27.42;;;11.10;99.90;;;;;;5034497;28;20036;-71
2022/05/03 08:17:48;;;;;;;47.97;27.13;;;11.00;99.90;;;;;;5061807;28;20051;-71
2022/05/03 08:20:15;;;;;;;41.92;25.35;;;10.90;99.90;;;;;;5043429;28;21380;-71
2022/05/03 08:22:41;;;;;;;41.05;25.35;;;10.70;99.90;;;;;;5045252;28;20066;-71
2022/05/03 08:25:07;;;;;;;37.47;22.27;;;10.60;99.90;;;;;;5066536;28;20032;-71
2022/05/03 08:27:36;;;;;;;35.80;22.20;;;10.50;99.90;;;;;;5048737;28;21268;-70
2022/05/03 08:30:03;;;;;;;45.17;23.38;;;10.60;99.90;;;;;;5049630;28;20445;-71
2022/05/03 08:32:28;;;;;;;39.17;23.05;;;10.60;99.90;;;;;;5065194;28;20040;-71
2022/05/03 08:34:54;;;;;;;34.30;22.23;;;10.60;99.90;;;;;;5049515;28;20036;-71
2022/05/03 08:42:49;;;;;;;30.85;19.95;;;10.60;99.90;;;;;;5064971;28;20044;-71
2022/05/03 08:45:14;;;;;;;32.08;20.02;;;10.60;99.90;;;;;;5066152;28;20048;-71
2022/05/03 08:47:41;;;;;;;30.95;19.67;;;10.50;99.90;;;;;;5019400;28;21834;-69
2022/05/03 08:50:12;;;;;;;30.33;17.75;;;10.50;99.90;;;;;;5062242;28;20043;-69
2022/05/03 08:52:51;;;;;;;25.48;15.45;;;10.50;99.90;;;;;;5062564;28;20527;-70
2022/05/03 08:55:17;;;;;;;21.70;13.48;;;10.60;99.90;;;;;;5069730;28;20048;-69
2022/05/03 08:57:44;;;;;;;20.90;12.18;;;10.60;99.90;;;;;;5071628;28;20093;-70
2022/05/03 09:00:11;;;;;;;15.18;9.65;;;10.70;99.90;;;;;;5061374;28;20275;-70
2022/05/03 09:02:56;;;;;;;18.08;8.40;;;10.70;99.90;;;;;;5052506;28;20052;-70
2022/05/03 09:05:24;;;;;;;15.93;7.63;;;10.70;99.90;;;;;;5070771;28;20040;-70
2022/05/03 09:07:50;;;;;;;14.18;6.82;;;10.70;99.90;;;;;;5069082;28;20043;-70
2022/05/03 09:10:19;;;;;;;17.98;7.75;;;10.60;99.90;;;;;;5068370;28;20082;-70
2022/05/03 09:12:46;;;;;;;14.35;7.22;;;10.70;99.90;;;;;;5068949;28;20036;-70
2022/05/03 09:15:12;;;;;;;11.88;7.20;;;10.70;99.90;;;;;;5068201;28;20074;-70
2022/05/03 09:17:40;;;;;;;11.60;6.78;;;10.70;99.90;;;;;;5071282;28;20101;-70
2022/05/03 09:25:50;;;;;;;17.48;7.00;;;10.80;99.90;;;;;;5068602;28;20036;-70
2022/05/03 09:28:18;;;;;;;10.02;6.68;;;10.80;99.90;;;;;;5050169;28;20042;-71
2022/05/03 09:30:52;;;;;;;13.57;7.00;;;10.90;99.90;;;;;;5067780;28;20427;-70
2022/05/03 09:33:20;;;;;;;14.43;8.02;;;10.90;99.90;;;;;;5068324;28;20048;-71
2022/05/03 09:35:46;;;;;;;14.23;7.13;;;10.90;99.90;;;;;;5050406;28;20043;-71
2022/05/03 09:38:12;;;;;;;11.52;6.85;;;11.00;99.90;;;;;;5067875;28;20497;-70
2022/05/03 09:40:43;;;;;;;13.00;7.47;;;11.00;99.90;;;;;;5053307;28;20058;-70
2022/05/03 09:43:09;;;;;;;16.13;7.93;;;11.10;99.90;;;;;;5069945;28;20036;-70
2022/05/03 09:45:36;;;;;;;12.77;7.88;;;11.10;99.90;;;;;;5052111;28;20089;-71
2022/05/03 09:48:03;;;;;;;13.57;7.57;;;11.10;99.90;;;;;;5058474;28;20753;-71
2022/05/03 09:50:43;;;;;;;19.15;7.72;;;11.10;99.90;;;;;;5078756;28;20123;-71
2022/05/03 09:53:19;;;;;;;22.30;8.63;;;11.00;99.90;;;;;;5080797;28;20051;-71
2022/05/03 09:55:50;;;;;;;12.52;7.55;;;11.10;99.90;;;;;;5071393;28;20062;-70
2022/05/03 09:58:18;;;;;;;16.52;7.95;;;11.10;99.90;;;;;;5059865;28;20393;-71
2022/05/03 10:00:46;;;;;;;18.58;8.55;;;11.10;99.90;;;;;;5065835;28;20032;-71
2022/05/03 10:03:13;;;;;;;13.02;7.75;;;11.00;99.90;;;;;;5053435;28;20040;-71
2022/05/03 10:05:45;;;;;;;13.80;7.00;;;11.00;99.90;;;;;;5065231;28;20044;-71
2022/05/03 10:08:16;;;;;;;15.13;7.07;;;11.10;99.90;;;;;;5074922;28;20039;-71
2022/05/03 10:10:44;;;;;;;13.20;6.97;;;11.10;99.90;;;;;;5082901;28;20136;-71
2022/05/03 10:13:14;;;;;;;14.45;7.63;;;11.30;99.90;;;;;;5051635;28;20124;-72
2022/05/03 10:21:27;;;;;;;22.05;7.88;;;11.60;99.90;;;;;;5081211;28;20036;-71
2022/05/03 10:24:09;;;;;;;18.15;8.40;;;11.50;99.90;;;;;;5058197;28;20043;-71
2022/05/03 10:27:01;;;;;;;16.25;7.45;;;11.40;99.90;;;;;;5032436;28;20028;-70
2022/05/03 10:29:29;;;;;;;19.42;6.97;;;11.40;99.90;;;;;;5067946;28;20565;-70
2022/05/03 10:32:02;;;;;;;15.35;7.15;;;11.40;99.90;;;;;;5084162;28;20123;-70
2022/05/03 10:34:40;;;;;;;22.60;8.13;;;11.40;99.90;;;;;;5085753;28;20063;-70
2022/05/03 10:37:14;;;;;;;21.80;7.32;;;11.40;99.90;;;;;;5074154;28;20031;-70
2022/05/03 10:39:51;;;;;;;20.77;7.72;;;11.50;99.90;;;;;;5068199;28;20066;-70
2022/05/03 10:42:21;;;;;;;20.88;7.20;;;11.50;99.90;;;;;;5048920;28;20051;-70
2022/05/03 10:44:56;;;;;;;20.65;6.35;;;11.60;99.90;;;;;;5068205;28;20115;-71
2022/05/03 10:47:50;;;;;;;22.45;6.60;;;11.60;99.90;;;;;;5068125;28;20054;-70
2022/05/03 10:50:16;;;;;;;21.77;6.60;;;11.70;99.90;;;;;;5070097;28;20036;-70
2022/05/03 10:53:07;;;;;;;16.98;6.28;;;11.80;99.90;;;;;;5067051;28;20521;-70
2022/05/03 10:55:35;;;;;;;19.55;6.75;;;11.90;99.90;;;;;;5064731;28;20135;-70
2022/05/03 10:58:31;;;;;;;18.75;7.15;;;11.90;99.90;;;;;;5078292;28;20054;-71
2022/05/03 11:01:06;;;;;;;16.60;6.45;;;12.00;99.90;;;;;;5080105;28;20657;-70
2022/05/03 11:03:40;;;;;;;20.50;7.03;;;12.00;99.90;;;;;;5074966;28;20035;-71
2022/05/03 11:06:25;;;;;;;14.38;6.13;;;12.00;99.90;;;;;;5081095;28;20038;-70
2022/05/03 11:11:37;;;;;;;14.18;5.43;;;12.20;99.90;;;;;;5065752;28;20131;-70
2022/05/03 11:14:04;;;;;;;20.73;6.30;;;12.30;99.90;;;;;;5073930;28;20032;-71
2022/05/03 11:16:34;;;;;;;13.85;5.68;;;12.30;99.90;;;;;;5065200;28;20074;-70
2022/05/03 11:19:23;;;;;;;10.80;5.70;;;12.40;99.90;;;;;;5074775;28;20445;-70
2022/05/03 11:21:50;;;;;;;15.05;5.10;;;12.50;99.90;;;;;;5066400;28;20043;-71
2022/05/03 11:24:26;;;;;;;15.68;5.90;;;12.50;99.90;;;;;;5066932;28;20028;-70
2022/05/03 11:26:54;;;;;;;12.52;5.75;;;12.50;99.90;;;;;;5079540;28;20428;-71
2022/05/03 11:29:20;;;;;;;12.90;4.97;;;12.50;99.90;;;;;;5074374;28;20284;-70
2022/05/03 11:31:53;;;;;;;13.57;6.13;;;12.60;99.90;;;;;;5081624;28;20043;-71
2022/05/03 11:34:19;;;;;;;;;;;12.50;99.90;;;;;;5075617;28;20404;-70
2022/05/03 11:36:47;;;;;;;11.98;4.95;;;12.50;99.90;;;;;;5059779;28;19916;-70
2022/05/03 11:39:14;;;;;;;14.18;5.03;;;12.60;99.90;;;;;;5057056;28;20096;-70
2022/05/03 11:41:43;;;;;;;12.82;5.43;;;12.60;99.90;;;;;;5067739;28;20048;-69
2022/05/03 11:44:10;;;;;;;12.25;4.53;;;12.50;99.90;;;;;;5084416;28;20032;-70
2022/05/03 11:46:38;;;;;;;13.27;5.60;;;12.60;99.90;;;;;;5076107;28;20492;-69
2022/05/03 11:49:07;;;;;;;13.02;4.80;;;12.70;99.90;;;;;;5066035;28;20101;-70
2022/05/03 11:57:16;;;;;;;9.63;4.43;;;12.90;99.90;;;;;;5081282;28;20059;-71
2022/05/03 11:59:43;;;;;;;13.68;4.65;;;13.00;99.90;;;;;;5070954;28;20047;-70
2022/05/03 12:02:14;;;;;;;9.18;4.30;;;13.00;99.90;;;;;;5072403;28;20028;-71
2022/05/03 12:04:55;;;;;;;12.45;5.50;;;13.10;99.90;;;;;;5054145;28;20119;-70
2022/05/03 12:07:21;;;;;;;15.05;5.03;;;13.10;99.90;;;;;;5073921;28;20461;-71
2022/05/03 12:09:47;;;;;;;11.32;4.47;;;13.10;99.90;;;;;;5075389;28;20485;-70
2022/05/03 12:12:43;;;;;;;11.70;4.60;;;13.10;99.90;;;;;;5070299;28;20463;-70
2022/05/03 12:15:13;;;;;;;8.90;4.20;;;13.10;99.90;;;;;;5054067;28;20044;-71
2022/05/03 12:17:56;;;;;;;12.75;5.18;;;13.10;99.90;;;;;;5070652;28;20085;-71
2022/05/03 12:20:22;;;;;;;13.52;5.03;;;13.10;99.90;;;;;;5053752;28;20040;-70
2022/05/03 12:23:08;;;;;;;13.80;4.53;;;13.10;99.90;;;;;;5062815;28;20039;-71
2022/05/03 12:25:35;;;;;;;11.98;4.05;;;13.00;99.90;;;;;;5069106;28;20123;-71
2022/05/03 12:28:07;;;;;;;14.25;3.70;;;13.10;99.90;;;;;;5060188;28;20036;-71
2022/05/03 12:30:34;;;;;;;;;;;13.10;99.90;;;;;;5064933;28;20070;-70
2022/05/03 12:33:07;;;;;;;9.88;3.90;;;13.00;99.90;;;;;;5071795;28;19927;-71
2022/05/03 12:35:37;;;;;;;11.05;4.30;;;13.10;99.90;;;;;;5084897;28;20107;-70
2022/05/03 12:38:17;;;;;;;9.52;4.20;;;13.00;99.90;;;;;;5070698;28;20032;-70
2022/05/03 12:40:48;;;;;;;17.00;4.30;;;13.00;99.90;;;;;;5052974;28;20458;-70
2022/05/03 12:43:32;;;;;;;13.95;4.57;;;13.10;99.90;;;;;;5073884;28;20124;-70
2022/05/03 12:46:00;;;;;;;10.48;4.43;;;13.20;99.90;;;;;;5059825;28;20527;-71
2022/05/03 12:48:31;;;;;;;13.70;4.10;;;13.30;99.90;;;;;;5086919;28;20119;-71
2022/05/03 12:50:58;;;;;;;12.35;4.43;;;13.30;99.90;;;;;;5079966;28;20390;-71
2022/05/03 12:53:35;;;;;;;13.00;4.40;;;13.40;99.90;;;;;;5069588;28;20433;-71
2022/05/03 12:58:48;;;;;;;9.55;4.75;;;13.90;99.90;;;;;;5069336;28;20283;-71
2022/05/03 13:01:15;;;;;;;8.85;3.67;;;14.20;99.90;;;;;;5068645;28;20036;-71
2022/05/03 13:03:47;;;;;;;10.88;4.15;;;14.50;99.70;;;;;;5058463;28;20040;-71
2022/05/03 13:06:13;;;;;;;8.25;4.05;;;14.70;99.10;;;;;;5073461;28;20042;-71
2022/05/03 13:08:39;;;;;;;12.05;4.45;;;14.80;98.60;;;;;;5062410;28;20267;-71
2022/05/03 13:11:05;;;;;;;11.23;4.30;;;14.80;98.30;;;;;;5080722;28;20047;-71
2022/05/03 13:13:31;;;;;;;12.35;3.50;;;14.70;97.10;;;;;;5079263;28;20036;-70
2022/05/03 13:15:56;;;;;;;12.45;3.55;;;14.80;97.20;;;;;;5044417;28;20043;-70
2022/05/03 13:18:22;;;;;;;9.02;3.63;;;14.80;97.30;;;;;;5059359;28;20093;-71
2022/05/03 13:20:48;;;;;;;7.32;3.30;;;14.60;97.00;;;;;;5056963;28;20044;-71
2022/05/03 13:23:14;;;;;;;8.73;3.10;;;14.70;97.10;;;;;;5063229;28;20393;-70
2022/05/03 13:25:40;;;;;;;12.05;4.07;;;14.80;96.80;;;;;;5078564;28;20051;-71
2022/05/03 13:28:06;;;;;;;8.95;3.20;;;14.70;96.20;;;;;;5053305;28;20129;-71
2022/05/03 13:30:33;;;;;;;8.65;3.03;;;14.80;97.00;;;;;;5063980;28;20115;-71
2022/05/03 13:32:59;;;;;;;7.10;3.05;;;15.10;96.60;;;;;;5045405;28;20296;-70
2022/05/03 13:40:57;;;;;;;7.43;2.90;;;15.60;95.60;;;;;;5066473;28;20390;-71
2022/05/03 13:43:22;;;;;;;9.60;2.78;;;15.90;95.20;;;;;;5066132;28;20052;-71
2022/05/03 13:45:49;;;;;;;7.82;3.00;;;16.00;94.50;;;;;;5066245;28;20067;-71
2022/05/03 13:48:15;;;;;;;7.35;3.05;;;16.50;94.70;;;;;;5091766;28;20031;-71
2022/05/03 13:50:42;;;;;;;6.45;3.33;;;16.60;93.70;;;;;;5058828;28;20456;-71
2022/05/03 13:53:09;;;;;;;8.00;2.97;;;16.40;93.20;;;;;;5068988;28;20652;-71